Spring City, TN

7:45 AM EST on March 04, 2015 (GMT -0500)
MesoWest TVAW TN US ORNL | Change Station
CLOSE
Current Station
Personal Weather Station
Location: Watts Bar Dam, TN
Elevation: 705 ft
Nearby Weather Stations
Active Advisory: Winter Storm Watch

Elev 705 ft 35.60 °N, 84.79 °W | Updated 45 minutes ago

Overcast
Overcast
56 °F
Feels Like 56 °F
N
5
Wind Variable Wind from South
Gusts 0.0 mph

Today
High -- | Low -- °F
--% Chance of Precip.
Yesterday
High -- | Low -- °F
Precip. -- in
7:05 AM 6:36 PM
Waxing Gibbous, 99% visible
Pressure 29.92 in
Visibility 9.0 miles
Clouds Few 800 ft
Mostly Cloudy 1400 ft
Overcast 3300 ft
Dew Point Not available.
Humidity Not available.
Rainfall 0.00 in
Snow Depth Not available.
UV 0 out of 12
Pollen .60 out of 12
Air Quality Not available.
Flu Activity Not available.
METAR KCSV 041226Z AUTO 22008KT 9SM FEW008 BKN014 OVC033 16/14 A2992 RMK AO2 RAB00E26 P0003 T01610144

More Conditions Fewer Conditions

Pressure 29.92 in
Visibility 9.0 miles
Clouds Few 800 ft
Mostly Cloudy 1400 ft
Overcast 3300 ft
Dew Point Not available.
Humidity Not available.
Rainfall 0.00 in
Snow Depth Not available.
UV 0 out of 12
Pollen .60 out of 12
Air Quality Not available.
Flu Activity Not available.
METAR KCSV 041226Z AUTO 22008KT 9SM FEW008 BKN014 OVC033 16/14 A2992 RMK AO2 RAB00E26 P0003 T01610144

More Conditions Fewer Conditions

10-Day Weather Forecast

Almanac

Astronomy

Mar. 04, 2015 Rise Set
Actual Time
Civil Twilight
Nautical Twilight
Astronomical Twilight
Moon
Length of Visible Light
Length of Day
Tomorrow will be .
, % of the Moon is Illuminated

Today's Extremes

State Highs State Lows

Community

WunderPhotos

Upload Photos

1,802,441 photos uploaded!

WunderBlogs® & News

Nearby

Air Quality

  Air Quality AQ Index Pollutant
Not available.

Snow Depth

Station Depth Elevation

Earthquake Activity

City Distance Mag. Time & Date
Minimum magnitude displayed is 2.5.

Coastal Water Temperatures

Place Temperature

Nearby Weather Stations

Winter Storm Watch
Statement as of 3:30 AM EST on March 04, 2015

... Winter Storm Watch remains in effect from late tonight through
Thursday afternoon...

* event... wintry mix of freezing rain changing to sleet and snow.

* Timing... beginning around midnight Wednesday night and
continuing until 4 PM EST Thursday afternoon.

* Impacts... freezing rain accumulations a quarter of an inch or
less... changing over to sleet and snow with accumulations
generally 2 inches or less.

Precautionary/preparedness actions...

A Winter Storm Watch means there is a potential for significant
snow... sleet... and/or ice accumulations. Future driving
conditions may become hazardous... so continue to monitor the
latest forecasts.